Hengist.it
  Home
 Volo reale
   Pilot Logbook
   Private Pilot Licence
   I miei aerei
   Scuola volo FlySabaudia
   Aeroporto dell'Urbe
   Galleria fotografica
   Galleria video
 Volo virtuale
   Ivao
   Flight Simulator
   Air Traffic Control
   VFR Tour 2007
   VFR World Tour 2008
 
 Servizi
   Meteo & Notam
   Airports & Navaids
   Effemeridi
   Forum A.O.P.A.
   Pagina degli ospiti
   Contatti
   Links
 
 Altri Hobbies
   A.S. Roma
   Home Cinema
   X-Box 360 / PC
 
 
   VFR Tour 2007

Il piano di volo




>>>> Il tragitto sulla mappa <<<<


Il periodo particolarmente caldo, per cui decido di decollare da Taranto all'alba...

LIBG 221750Z 25005KT CAVOK 35/12 Q1010=

Condizioni meteo ottime!



pronto al decollo per pista 35




il sole appena sorto quando mi allontano dal Golfo di Taranto...




sulla verticale della Foce del fiume Agri...




il tempo bellissimo, ed in cabina il caldo inizia a farsi sentire...




sulla verticale di Punta Alice...




l'aeroporto di Crotone particolarmente trafficato, riesco comunque ad infilarmi per un touch & go...




dopo il touch & go, si allinea e decolla un volo di linea dell'Air One...




atterro a Lamezia Terme un minuto prima di un Boeing della KLM...



<<< Indietro


 
 

2000-2007 Hengist.it - Tutti i diritti riservati